sensor_id;sensor_type;location;lat;lon;timestamp;pressure;altitude;pressure_sealevel;temperature;humidity
48015;BME280;33780;51.034;7.120;2023-02-26T00:00:04;100796.63;;;1.83;62.17
48015;BME280;33780;51.034;7.120;2023-02-26T00:02:32;100801.97;;;1.81;62.69
48015;BME280;33780;51.034;7.120;2023-02-26T00:04:57;100787.97;;;1.79;62.30
48015;BME280;33780;51.034;7.120;2023-02-26T00:07:23;100801.13;;;1.80;62.42
48015;BME280;33780;51.034;7.120;2023-02-26T00:09:53;100798.47;;;1.80;63.00
48015;BME280;33780;51.034;7.120;2023-02-26T00:12:18;100812.56;;;1.79;62.82
48015;BME280;33780;51.034;7.120;2023-02-26T00:14:44;100817.91;;;1.78;62.88
48015;BME280;33780;51.034;7.120;2023-02-26T00:17:27;100814.50;;;1.76;63.07
48015;BME280;33780;51.034;7.120;2023-02-26T00:19:55;100816.22;;;1.77;63.21
48015;BME280;33780;51.034;7.120;2023-02-26T00:22:20;100822.41;;;1.76;62.94
48015;BME280;33780;51.034;7.120;2023-02-26T00:24:46;100832.13;;;1.75;63.57
48015;BME280;33780;51.034;7.120;2023-02-26T00:27:11;100826.84;;;1.75;63.20
48015;BME280;33780;51.034;7.120;2023-02-26T00:29:37;100839.09;;;1.76;63.79
48015;BME280;33780;51.034;7.120;2023-02-26T00:32:03;100843.53;;;1.76;63.16
48015;BME280;33780;51.034;7.120;2023-02-26T00:34:28;100844.38;;;1.76;63.35
48015;BME280;33780;51.034;7.120;2023-02-26T00:42:12;100856.63;;;1.77;63.78
48015;BME280;33780;51.034;7.120;2023-02-26T00:44:38;100856.63;;;1.77;63.92
48015;BME280;33780;51.034;7.120;2023-02-26T00:47:17;100862.84;;;1.76;64.16
48015;BME280;33780;51.034;7.120;2023-02-26T00:52:45;100867.19;;;1.77;63.80
48015;BME280;33780;51.034;7.120;2023-02-26T00:55:13;100867.97;;;1.79;63.83
48015;BME280;33780;51.034;7.120;2023-02-26T00:57:38;100856.56;;;1.79;64.00
48015;BME280;33780;51.034;7.120;2023-02-26T01:00:04;100867.19;;;1.77;63.39
48015;BME280;33780;51.034;7.120;2023-02-26T01:02:34;100874.25;;;1.77;63.41
48015;BME280;33780;51.034;7.120;2023-02-26T01:04:59;100869.03;;;1.75;63.57
48015;BME280;33780;51.034;7.120;2023-02-26T01:07:26;100880.53;;;1.74;63.34
48015;BME280;33780;51.034;7.120;2023-02-26T01:09:52;100881.38;;;1.75;63.60
48015;BME280;33780;51.034;7.120;2023-02-26T01:12:18;100879.75;;;1.72;63.47
48015;BME280;33780;51.034;7.120;2023-02-26T01:14:43;100883.31;;;1.71;63.77
48015;BME280;33780;51.034;7.120;2023-02-26T01:17:24;100887.81;;;1.69;63.63
48015;BME280;33780;51.034;7.120;2023-02-26T01:19:57;100880.91;;;1.67;63.70
48015;BME280;33780;51.034;7.120;2023-02-26T01:25:13;100897.91;;;1.60;63.97
48015;BME280;33780;51.034;7.120;2023-02-26T01:27:40;100890.94;;;1.59;64.08
48015;BME280;33780;51.034;7.120;2023-02-26T01:30:08;100890.22;;;1.55;64.26
48015;BME280;33780;51.034;7.120;2023-02-26T01:32:41;100893.84;;;1.52;64.03
48015;BME280;33780;51.034;7.120;2023-02-26T01:35:39;100880.03;;;1.47;64.19
48015;BME280;33780;51.034;7.120;2023-02-26T01:38:23;100886.25;;;1.46;64.16
48015;BME280;33780;51.034;7.120;2023-02-26T01:47:03;100875.16;;;1.38;64.14
48015;BME280;33780;51.034;7.120;2023-02-26T01:49:31;100869.09;;;1.36;64.33
48015;BME280;33780;51.034;7.120;2023-02-26T01:52:01;100870.09;;;1.34;64.30
48015;BME280;33780;51.034;7.120;2023-02-26T01:54:32;100871.97;;;1.32;64.25
48015;BME280;33780;51.034;7.120;2023-02-26T01:57:12;100872.88;;;1.31;64.08
48015;BME280;33780;51.034;7.120;2023-02-26T01:59:42;100880.88;;;1.29;64.50
48015;BME280;33780;51.034;7.120;2023-02-26T02:02:11;100886.16;;;1.29;64.15
48015;BME280;33780;51.034;7.120;2023-02-26T02:04:38;100887.94;;;1.29;64.20
48015;BME280;33780;51.034;7.120;2023-02-26T02:07:05;100897.53;;;1.30;64.41
48015;BME280;33780;51.034;7.120;2023-02-26T02:09:31;100898.53;;;1.27;64.25
48015;BME280;33780;51.034;7.120;2023-02-26T02:20:14;100912.09;;;1.18;64.49
48015;BME280;33780;51.034;7.120;2023-02-26T02:25:32;100912.25;;;1.15;64.68
48015;BME280;33780;51.034;7.120;2023-02-26T02:30:58;100921.22;;;1.11;64.79
48015;BME280;33780;51.034;7.120;2023-02-26T02:33:30;100930.06;;;1.10;64.88
48015;BME280;33780;51.034;7.120;2023-02-26T02:36:02;100931.84;;;1.09;64.64
48015;BME280;33780;51.034;7.120;2023-02-26T02:38:46;100924.88;;;1.07;65.21
48015;BME280;33780;51.034;7.120;2023-02-26T02:41:25;100929.31;;;1.06;64.90
48015;BME280;33780;51.034;7.120;2023-02-26T02:43:53;100931.09;;;1.06;64.81
48015;BME280;33780;51.034;7.120;2023-02-26T02:46:25;100932.84;;;1.05;64.82
48015;BME280;33780;51.034;7.120;2023-02-26T02:49:01;100936.50;;;1.03;65.23
48015;BME280;33780;51.034;7.120;2023-02-26T02:51:34;100944.41;;;1.03;64.48
48015;BME280;33780;51.034;7.120;2023-02-26T02:54:09;100949.81;;;1.00;65.17
48015;BME280;33780;51.034;7.120;2023-02-26T02:59:15;100942.97;;;0.96;64.73
48015;BME280;33780;51.034;7.120;2023-02-26T03:01:43;100947.44;;;0.94;64.85
48015;BME280;33780;51.034;7.120;2023-02-26T03:04:12;100940.53;;;0.91;64.83
48015;BME280;33780;51.034;7.120;2023-02-26T03:06:39;100947.56;;;0.90;64.91
48015;BME280;33780;51.034;7.120;2023-02-26T03:09:07;100953.81;;;0.88;64.80
48015;BME280;33780;51.034;7.120;2023-02-26T03:11:33;100951.31;;;0.85;64.91
48015;BME280;33780;51.034;7.120;2023-02-26T03:13:59;100959.28;;;0.83;65.05
48015;BME280;33780;51.034;7.120;2023-02-26T03:24:35;100966.81;;;0.71;65.45
48015;BME280;33780;51.034;7.120;2023-02-26T03:27:22;100972.22;;;0.68;65.35
48015;BME280;33780;51.034;7.120;2023-02-26T03:30:01;100974.97;;;0.65;65.53
48015;BME280;33780;51.034;7.120;2023-02-26T03:37:59;100984.06;;;0.57;65.66
48015;BME280;33780;51.034;7.120;2023-02-26T03:40:30;100980.56;;;0.57;65.49
48015;BME280;33780;51.034;7.120;2023-02-26T03:43:34;100986.84;;;0.53;65.55
48015;BME280;33780;51.034;7.120;2023-02-26T03:46:04;100994.75;;;0.53;65.46
48015;BME280;33780;51.034;7.120;2023-02-26T03:48:32;101001.91;;;0.49;65.36
48015;BME280;33780;51.034;7.120;2023-02-26T03:51:04;101001.13;;;0.47;65.32
48015;BME280;33780;51.034;7.120;2023-02-26T03:53:50;101004.69;;;0.46;65.10
48015;BME280;33780;51.034;7.120;2023-02-26T03:56:35;101007.38;;;0.45;65.24
48015;BME280;33780;51.034;7.120;2023-02-26T03:59:02;101007.44;;;0.43;65.54
48015;BME280;33780;51.034;7.120;2023-02-26T04:01:40;101004.94;;;0.40;65.66
48015;BME280;33780;51.034;7.120;2023-02-26T04:04:31;101005.06;;;0.37;65.44
48015;BME280;33780;51.034;7.120;2023-02-26T04:06:57;101005.97;;;0.36;65.04
48015;BME280;33780;51.034;7.120;2023-02-26T04:09:23;101012.13;;;0.35;65.47
48015;BME280;33780;51.034;7.120;2023-02-26T04:11:50;101013.03;;;0.34;65.71
48015;BME280;33780;51.034;7.120;2023-02-26T04:14:19;101015.69;;;0.34;65.67
48015;BME280;33780;51.034;7.120;2023-02-26T04:16:45;101010.47;;;0.33;65.58
48015;BME280;33780;51.034;7.120;2023-02-26T04:19:11;101015.81;;;0.31;64.82
48015;BME280;33780;51.034;7.120;2023-02-26T04:21:37;101019.41;;;0.28;65.36
48015;BME280;33780;51.034;7.120;2023-02-26T04:24:02;101023.03;;;0.26;65.22
48015;BME280;33780;51.034;7.120;2023-02-26T04:26:28;101018.69;;;0.25;65.25
48015;BME280;33780;51.034;7.120;2023-02-26T04:28:56;101016.19;;;0.22;65.13
48015;BME280;33780;51.034;7.120;2023-02-26T04:31:21;101022.34;;;0.21;65.07
48015;BME280;33780;51.034;7.120;2023-02-26T04:33:46;101035.56;;;0.19;65.49
48015;BME280;33780;51.034;7.120;2023-02-26T04:36:12;101032.97;;;0.18;65.55
48015;BME280;33780;51.034;7.120;2023-02-26T04:38:37;101038.28;;;0.16;65.52
48015;BME280;33780;51.034;7.120;2023-02-26T04:41:04;101046.25;;;0.15;65.16
48015;BME280;33780;51.034;7.120;2023-02-26T04:43:29;101047.16;;;0.14;65.34
48015;BME280;33780;51.034;7.120;2023-02-26T04:45:54;101053.41;;;0.11;65.44
48015;BME280;33780;51.034;7.120;2023-02-26T04:48:20;101053.47;;;0.10;65.58
48015;BME280;33780;51.034;7.120;2023-02-26T04:50:45;101056.09;;;0.10;65.32
48015;BME280;33780;51.034;7.120;2023-02-26T04:53:11;101059.66;;;0.09;65.39
48015;BME280;33780;51.034;7.120;2023-02-26T04:55:37;101057.94;;;0.08;65.81
48015;BME280;33780;51.034;7.120;2023-02-26T04:58:05;101063.25;;;0.06;65.72
48015;BME280;33780;51.034;7.120;2023-02-26T05:00:30;101066.75;;;0.07;66.03
48015;BME280;33780;51.034;7.120;2023-02-26T05:02:55;101067.59;;;0.07;65.59
48015;BME280;33780;51.034;7.120;2023-02-26T05:05:20;101079.91;;;0.07;65.96
48015;BME280;33780;51.034;7.120;2023-02-26T05:07:46;101072.06;;;0.05;65.54
48015;BME280;33780;51.034;7.120;2023-02-26T05:10:11;101082.53;;;0.07;65.94
48015;BME280;33780;51.034;7.120;2023-02-26T05:12:37;101075.59;;;0.04;66.40
48015;BME280;33780;51.034;7.120;2023-02-26T05:15:03;101084.31;;;0.06;66.01
48015;BME280;33780;51.034;7.120;2023-02-26T05:17:29;101085.16;;;0.07;66.02
48015;BME280;33780;51.034;7.120;2023-02-26T05:19:54;101092.25;;;0.05;66.11
48015;BME280;33780;51.034;7.120;2023-02-26T05:22:19;101100.16;;;0.05;66.05
48015;BME280;33780;51.034;7.120;2023-02-26T05:24:45;101100.16;;;0.05;66.42
48015;BME280;33780;51.034;7.120;2023-02-26T05:27:10;101098.44;;;0.04;65.75
48015;BME280;33780;51.034;7.120;2023-02-26T05:29:36;101102.78;;;0.05;66.36
48015;BME280;33780;51.034;7.120;2023-02-26T05:32:09;101105.41;;;0.05;66.51
48015;BME280;33780;51.034;7.120;2023-02-26T05:34:34;101104.56;;;0.04;66.68
48015;BME280;33780;51.034;7.120;2023-02-26T05:37:00;101105.41;;;0.05;66.43
48015;BME280;33780;51.034;7.120;2023-02-26T05:39:25;101118.63;;;0.03;66.94
48015;BME280;33780;51.034;7.120;2023-02-26T05:41:50;101125.66;;;0.03;66.95
48015;BME280;33780;51.034;7.120;2023-02-26T05:44:17;101122.09;;;0.04;66.20
48015;BME280;33780;51.034;7.120;2023-02-26T05:46:42;101132.63;;;0.04;66.80
48015;BME280;33780;51.034;7.120;2023-02-26T05:49:08;101123.81;;;0.05;66.81
48015;BME280;33780;51.034;7.120;2023-02-26T05:51:33;101136.06;;;0.06;66.92
48015;BME280;33780;51.034;7.120;2023-02-26T05:53:58;101120.28;;;0.06;66.81
48015;BME280;33780;51.034;7.120;2023-02-26T05:56:24;101125.53;;;0.06;66.65
48015;BME280;33780;51.034;7.120;2023-02-26T05:58:49;101127.31;;;0.05;67.24
48015;BME280;33780;51.034;7.120;2023-02-26T06:01:20;101132.56;;;0.05;66.56
48015;BME280;33780;51.034;7.120;2023-02-26T06:03:45;101140.47;;;0.05;67.04
48015;BME280;33780;51.034;7.120;2023-02-26T06:06:11;101142.28;;;0.03;66.67
48015;BME280;33780;51.034;7.120;2023-02-26T06:08:38;101144.06;;;0.03;66.90
48015;BME280;33780;51.034;7.120;2023-02-26T06:11:04;101145.91;;;0.01;66.79
48015;BME280;33780;51.034;7.120;2023-02-26T06:13:30;101152.94;;;0.00;66.64
48015;BME280;33780;51.034;7.120;2023-02-26T06:15:55;101156.44;;;-0.01;66.58
48015;BME280;33780;51.034;7.120;2023-02-26T06:18:21;101160.91;;;-0.03;67.16
48015;BME280;33780;51.034;7.120;2023-02-26T06:20:59;101164.50;;;-0.06;66.71
48015;BME280;33780;51.034;7.120;2023-02-26T06:23:25;101172.47;;;-0.07;66.78
48015;BME280;33780;51.034;7.120;2023-02-26T06:25:53;101169.88;;;-0.09;66.85
48015;BME280;33780;51.034;7.120;2023-02-26T06:28:18;101173.44;;;-0.10;66.92
48015;BME280;33780;51.034;7.120;2023-02-26T06:30:45;101173.53;;;-0.13;66.64
48015;BME280;33780;51.034;7.120;2023-02-26T06:33:10;101177.09;;;-0.14;66.28
48015;BME280;33780;51.034;7.120;2023-02-26T06:35:39;101183.19;;;-0.13;66.70
48015;BME280;33780;51.034;7.120;2023-02-26T06:38:06;101187.59;;;-0.14;67.06
48015;BME280;33780;51.034;7.120;2023-02-26T06:40:32;101189.38;;;-0.14;66.50
48015;BME280;33780;51.034;7.120;2023-02-26T06:42:57;101190.22;;;-0.14;66.69
48015;BME280;33780;51.034;7.120;2023-02-26T06:45:23;101196.41;;;-0.15;67.03
48015;BME280;33780;51.034;7.120;2023-02-26T06:47:49;101211.34;;;-0.15;67.34
48015;BME280;33780;51.034;7.120;2023-02-26T06:50:15;101221.00;;;-0.16;67.25
48015;BME280;33780;51.034;7.120;2023-02-26T06:52:47;101219.28;;;-0.18;67.38
48015;BME280;33780;51.034;7.120;2023-02-26T06:55:12;101219.34;;;-0.20;67.35
48015;BME280;33780;51.034;7.120;2023-02-26T06:57:40;101227.19;;;-0.18;67.09
48015;BME280;33780;51.034;7.120;2023-02-26T07:00:07;101228.88;;;-0.16;67.33
48015;BME280;33780;51.034;7.120;2023-02-26T07:02:38;101235.00;;;-0.15;67.56
48015;BME280;33780;51.034;7.120;2023-02-26T07:05:04;101236.66;;;-0.13;67.65
48015;BME280;33780;51.034;7.120;2023-02-26T07:07:29;101240.03;;;-0.09;67.46
48015;BME280;33780;51.034;7.120;2023-02-26T07:09:55;101251.25;;;-0.04;67.38
48015;BME280;33780;51.034;7.120;2023-02-26T07:12:20;101258.16;;;0.00;67.52
48015;BME280;33780;51.034;7.120;2023-02-26T07:14:48;101260.75;;;0.02;67.30
48015;BME280;33780;51.034;7.120;2023-02-26T07:17:13;101265.91;;;0.05;67.47
48015;BME280;33780;51.034;7.120;2023-02-26T07:19:51;101266.69;;;0.07;67.19
48015;BME280;33780;51.034;7.120;2023-02-26T07:22:18;101273.56;;;0.11;67.11
48015;BME280;33780;51.034;7.120;2023-02-26T07:24:47;101282.28;;;0.13;67.09
48015;BME280;33780;51.034;7.120;2023-02-26T07:27:14;101290.09;;;0.14;67.02
48015;BME280;33780;51.034;7.120;2023-02-26T07:29:39;101295.31;;;0.16;66.95
48015;BME280;33780;51.034;7.120;2023-02-26T07:32:05;101293.47;;;0.19;66.91
48015;BME280;33780;51.034;7.120;2023-02-26T07:34:30;101300.34;;;0.23;66.85
48015;BME280;33780;51.034;7.120;2023-02-26T07:36:56;101295.88;;;0.25;67.67
48015;BME280;33780;51.034;7.120;2023-02-26T07:39:23;101303.66;;;0.28;66.81
48015;BME280;33780;51.034;7.120;2023-02-26T07:41:48;101310.59;;;0.31;67.01
48015;BME280;33780;51.034;7.120;2023-02-26T07:44:14;101310.44;;;0.36;67.35
48015;BME280;33780;51.034;7.120;2023-02-26T07:46:45;101313.78;;;0.41;66.99
48015;BME280;33780;51.034;7.120;2023-02-26T07:49:14;101320.66;;;0.45;67.26
48015;BME280;33780;51.034;7.120;2023-02-26T07:51:39;101315.22;;;0.49;67.57
48015;BME280;33780;51.034;7.120;2023-02-26T07:54:05;101322.09;;;0.53;67.11
48015;BME280;33780;51.034;7.120;2023-02-26T07:56:30;101327.28;;;0.56;66.98
48015;BME280;33780;51.034;7.120;2023-02-26T07:58:58;101326.31;;;0.59;66.84
48015;BME280;33780;51.034;7.120;2023-02-26T08:01:24;101327.94;;;0.63;66.75
48015;BME280;33780;51.034;7.120;2023-02-26T08:03:49;101330.44;;;0.66;66.96
48015;BME280;33780;51.034;7.120;2023-02-26T08:06:14;101331.19;;;0.70;66.86
48015;BME280;33780;51.034;7.120;2023-02-26T08:08:40;101334.69;;;0.70;66.46
48015;BME280;33780;51.034;7.120;2023-02-26T08:11:05;101330.25;;;0.72;66.44
48015;BME280;33780;51.034;7.120;2023-02-26T08:13:30;101334.59;;;0.73;66.57
48015;BME280;33780;51.034;7.120;2023-02-26T08:16:03;101339.75;;;0.76;66.52
48015;BME280;33780;51.034;7.120;2023-02-26T08:18:29;101337.88;;;0.80;66.97
48015;BME280;33780;51.034;7.120;2023-02-26T08:20:54;101341.31;;;0.82;66.78
48015;BME280;33780;51.034;7.120;2023-02-26T08:23:20;101341.25;;;0.83;67.14
48015;BME280;33780;51.034;7.120;2023-02-26T08:25:45;101339.41;;;0.85;66.92
48015;BME280;33780;51.034;7.120;2023-02-26T08:28:11;101340.28;;;0.86;66.66
48015;BME280;33780;51.034;7.120;2023-02-26T08:30:37;101341.03;;;0.89;66.56
48015;BME280;33780;51.034;7.120;2023-02-26T08:33:03;101345.41;;;0.90;65.56
48015;BME280;33780;51.034;7.120;2023-02-26T08:35:29;101347.97;;;0.92;65.85
48015;BME280;33780;51.034;7.120;2023-02-26T08:37:57;101349.63;;;0.95;65.98
48015;BME280;33780;51.034;7.120;2023-02-26T08:40:22;101349.47;;;0.99;66.44
48015;BME280;33780;51.034;7.120;2023-02-26T08:42:48;101357.19;;;1.04;66.59
48015;BME280;33780;51.034;7.120;2023-02-26T08:45:13;101353.50;;;1.09;66.24
48015;BME280;33780;51.034;7.120;2023-02-26T08:47:39;101359.47;;;1.14;66.70
48015;BME280;33780;51.034;7.120;2023-02-26T08:50:09;101362.84;;;1.18;65.99
48015;BME280;33780;51.034;7.120;2023-02-26T08:52:35;101358.31;;;1.21;66.01
48015;BME280;33780;51.034;7.120;2023-02-26T08:55:00;101358.19;;;1.25;65.92
48015;BME280;33780;51.034;7.120;2023-02-26T08:57:25;101363.31;;;1.29;65.82
48015;BME280;33780;51.034;7.120;2023-02-26T08:59:51;101371.97;;;1.33;66.04
48015;BME280;33780;51.034;7.120;2023-02-26T09:02:16;101363.06;;;1.35;65.34
48015;BME280;33780;51.034;7.120;2023-02-26T09:04:41;101375.34;;;1.36;64.56
48015;BME280;33780;51.034;7.120;2023-02-26T09:07:07;101372.53;;;1.41;65.31
48015;BME280;33780;51.034;7.120;2023-02-26T09:09:32;101384.72;;;1.43;64.96
48015;BME280;33780;51.034;7.120;2023-02-26T09:11:57;101387.38;;;1.43;63.12
48015;BME280;33780;51.034;7.120;2023-02-26T09:14:23;101383.84;;;1.44;63.86
48015;BME280;33780;51.034;7.120;2023-02-26T09:16:48;101393.34;;;1.48;64.16
48015;BME280;33780;51.034;7.120;2023-02-26T09:19:13;101397.59;;;1.52;63.88
48015;BME280;33780;51.034;7.120;2023-02-26T09:21:39;101395.75;;;1.55;64.30
48015;BME280;33780;51.034;7.120;2023-02-26T09:24:04;101399.31;;;1.54;62.71
48015;BME280;33780;51.034;7.120;2023-02-26T09:26:30;101397.47;;;1.56;63.14
48015;BME280;33780;51.034;7.120;2023-02-26T09:28:55;101407.16;;;1.55;62.45
48015;BME280;33780;51.034;7.120;2023-02-26T09:31:20;101402.69;;;1.57;61.22
48015;BME280;33780;51.034;7.120;2023-02-26T09:33:46;101414.09;;;1.58;61.93
48015;BME280;33780;51.034;7.120;2023-02-26T09:36:11;101416.50;;;1.64;62.33
48015;BME280;33780;51.034;7.120;2023-02-26T09:38:36;101413.75;;;1.67;62.09
48015;BME280;33780;51.034;7.120;2023-02-26T09:41:03;101417.13;;;1.70;61.83
48015;BME280;33780;51.034;7.120;2023-02-26T09:43:48;101424.88;;;1.75;61.99
48015;BME280;33780;51.034;7.120;2023-02-26T09:46:27;101429.88;;;1.83;61.79
48015;BME280;33780;51.034;7.120;2023-02-26T09:49:30;101440.34;;;1.84;60.48
48015;BME280;33780;51.034;7.120;2023-02-26T09:52:17;101434.91;;;1.89;60.66
48015;BME280;33780;51.034;7.120;2023-02-26T09:54:51;101448.03;;;1.90;61.07
48015;BME280;33780;51.034;7.120;2023-02-26T09:57:31;101442.69;;;1.92;60.31
48015;BME280;33780;51.034;7.120;2023-02-26T09:59:58;101449.47;;;1.99;61.20
48015;BME280;33780;51.034;7.120;2023-02-26T10:02:38;101444.88;;;2.04;61.10
48015;BME280;33780;51.034;7.120;2023-02-26T10:05:09;101454.31;;;2.09;60.56
48015;BME280;33780;51.034;7.120;2023-02-26T10:07:58;101444.50;;;2.13;57.79
48015;BME280;33780;51.034;7.120;2023-02-26T10:13:24;101461.13;;;2.15;55.34
48015;BME280;33780;51.034;7.120;2023-02-26T10:15:56;101473.25;;;2.21;58.26
48015;BME280;33780;51.034;7.120;2023-02-26T10:18:30;101464.47;;;2.20;56.98
48015;BME280;33780;51.034;7.120;2023-02-26T10:21:04;101474.00;;;2.24;57.03
48015;BME280;33780;51.034;7.120;2023-02-26T10:23:38;101460.47;;;2.32;57.67
48015;BME280;33780;51.034;7.120;2023-02-26T10:26:18;101475.16;;;2.39;56.01
48015;BME280;33780;51.034;7.120;2023-02-26T10:31:26;101488.38;;;2.61;57.55
48015;BME280;33780;51.034;7.120;2023-02-26T10:34:27;101480.81;;;2.73;56.61
48015;BME280;33780;51.034;7.120;2023-02-26T10:39:31;101482.44;;;2.98;56.03
48015;BME280;33780;51.034;7.120;2023-02-26T10:42:01;101475.03;;;3.06;56.19
48015;BME280;33780;51.034;7.120;2023-02-26T10:44:35;101489.66;;;3.15;56.05
48015;BME280;33780;51.034;7.120;2023-02-26T10:49:42;101493.41;;;3.29;56.47
48015;BME280;33780;51.034;7.120;2023-02-26T10:52:18;101486.22;;;3.33;54.63
48015;BME280;33780;51.034;7.120;2023-02-26T10:58:03;101501.50;;;3.26;52.57
48015;BME280;33780;51.034;7.120;2023-02-26T11:00:30;101498.09;;;3.23;53.49
48015;BME280;33780;51.034;7.120;2023-02-26T11:02:56;101491.09;;;3.22;54.70
48015;BME280;33780;51.034;7.120;2023-02-26T11:05:28;101503.59;;;3.18;53.74
48015;BME280;33780;51.034;7.120;2023-02-26T11:07:57;101495.94;;;3.12;51.42
48015;BME280;33780;51.034;7.120;2023-02-26T11:10:35;101500.56;;;3.07;52.47
48015;BME280;33780;51.034;7.120;2023-02-26T11:13:02;101500.50;;;3.09;53.61
48015;BME280;33780;51.034;7.120;2023-02-26T11:15:31;101510.66;;;3.18;54.35
48015;BME280;33780;51.034;7.120;2023-02-26T11:17:57;101512.25;;;3.22;52.21
48015;BME280;33780;51.034;7.120;2023-02-26T11:20:32;101519.00;;;3.29;53.85
48015;BME280;33780;51.034;7.120;2023-02-26T11:23:00;101515.84;;;3.41;54.52
48015;BME280;33780;51.034;7.120;2023-02-26T11:25:29;101503.13;;;3.49;53.56
48015;BME280;33780;51.034;7.120;2023-02-26T11:28:00;101514.97;;;3.61;53.60
48015;BME280;33780;51.034;7.120;2023-02-26T11:30:29;101512.84;;;3.69;54.20
48015;BME280;33780;51.034;7.120;2023-02-26T11:32:57;101501.97;;;3.75;53.62
48015;BME280;33780;51.034;7.120;2023-02-26T11:35:24;101512.38;;;3.80;54.05
48015;BME280;33780;51.034;7.120;2023-02-26T11:37:59;101512.44;;;3.78;53.10
48015;BME280;33780;51.034;7.120;2023-02-26T11:40:38;101513.56;;;3.73;51.69
48015;BME280;33780;51.034;7.120;2023-02-26T11:43:16;101515.34;;;3.72;52.76
48015;BME280;33780;51.034;7.120;2023-02-26T11:45:44;101520.84;;;3.68;52.87
48015;BME280;33780;51.034;7.120;2023-02-26T11:48:20;101509.47;;;3.66;53.21
48015;BME280;33780;51.034;7.120;2023-02-26T11:50:48;101513.91;;;3.65;53.46
48015;BME280;33780;51.034;7.120;2023-02-26T11:53:25;101506.28;;;3.57;52.25
48015;BME280;33780;51.034;7.120;2023-02-26T11:55:58;101518.66;;;3.57;52.74
48015;BME280;33780;51.034;7.120;2023-02-26T11:58:24;101515.22;;;3.55;51.75
48015;BME280;33780;51.034;7.120;2023-02-26T12:00:52;101517.44;;;3.45;50.32
48015;BME280;33780;51.034;7.120;2023-02-26T12:03:25;101509.50;;;3.45;51.53
48015;BME280;33780;51.034;7.120;2023-02-26T12:05:53;101514.78;;;3.45;50.60
48015;BME280;33780;51.034;7.120;2023-02-26T12:08:29;101515.38;;;3.52;52.08
48015;BME280;33780;51.034;7.120;2023-02-26T12:11:09;101514.28;;;3.56;51.02
48015;BME280;33780;51.034;7.120;2023-02-26T12:25:07;101495.03;;;3.91;51.09
48015;BME280;33780;51.034;7.120;2023-02-26T12:33:47;101511.69;;;4.14;49.60
48015;BME280;33780;51.034;7.120;2023-02-26T12:36:46;101500.78;;;4.20;50.41
48015;BME280;33780;51.034;7.120;2023-02-26T12:42:00;101497.78;;;4.28;49.20
48015;BME280;33780;51.034;7.120;2023-02-26T12:47:58;101483.03;;;4.41;48.34
48015;BME280;33780;51.034;7.120;2023-02-26T12:51:02;101481.84;;;4.46;48.90
48015;BME280;33780;51.034;7.120;2023-02-26T13:00:13;101488.53;;;4.55;48.50
48015;BME280;33780;51.034;7.120;2023-02-26T13:10:35;101486.31;;;4.46;48.04
48015;BME280;33780;51.034;7.120;2023-02-26T13:14:06;101490.75;;;4.45;46.38
48015;BME280;33780;51.034;7.120;2023-02-26T13:16:31;101486.09;;;4.50;48.62
48015;BME280;33780;51.034;7.120;2023-02-26T13:19:10;101482.38;;;4.54;46.98
48015;BME280;33780;51.034;7.120;2023-02-26T13:21:45;101487.44;;;4.59;47.46
48015;BME280;33780;51.034;7.120;2023-02-26T13:26:39;101488.06;;;4.64;46.79
48015;BME280;33780;51.034;7.120;2023-02-26T13:29:22;101492.34;;;4.67;46.89
48015;BME280;33780;51.034;7.120;2023-02-26T13:32:12;101506.19;;;4.73;46.89
48015;BME280;33780;51.034;7.120;2023-02-26T13:34:51;101493.94;;;4.71;45.57
48015;BME280;33780;51.034;7.120;2023-02-26T13:37:23;101495.41;;;4.76;46.01
48015;BME280;33780;51.034;7.120;2023-02-26T13:43:03;101508.09;;;4.89;46.88
48015;BME280;33780;51.034;7.120;2023-02-26T13:48:19;101484.75;;;4.95;44.35
48015;BME280;33780;51.034;7.120;2023-02-26T13:56:14;101485.38;;;5.00;45.41
48015;BME280;33780;51.034;7.120;2023-02-26T13:58:43;101499.41;;;5.02;45.72
48015;BME280;33780;51.034;7.120;2023-02-26T14:02:34;101484.38;;;5.03;44.71
48015;BME280;33780;51.034;7.120;2023-02-26T14:07:03;101480.06;;;5.00;44.61
48015;BME280;33780;51.034;7.120;2023-02-26T14:09:59;101483.13;;;5.10;45.37
48015;BME280;33780;51.034;7.120;2023-02-26T14:17:47;101487.56;;;5.27;43.58
48015;BME280;33780;51.034;7.120;2023-02-26T14:20:29;101488.44;;;5.27;44.51
48015;BME280;33780;51.034;7.120;2023-02-26T14:23:11;101489.91;;;5.33;45.35
48015;BME280;33780;51.034;7.120;2023-02-26T14:25:46;101493.13;;;5.39;45.79
48015;BME280;33780;51.034;7.120;2023-02-26T14:28:32;101496.53;;;5.41;44.61
48015;BME280;33780;51.034;7.120;2023-02-26T14:34:11;101499.03;;;5.44;45.63
48015;BME280;33780;51.034;7.120;2023-02-26T14:36:40;101500.75;;;5.45;43.92
48015;BME280;33780;51.034;7.120;2023-02-26T14:39:07;101506.75;;;5.49;43.91
48015;BME280;33780;51.034;7.120;2023-02-26T14:41:39;101504.78;;;5.53;46.27
48015;BME280;33780;51.034;7.120;2023-02-26T14:44:14;101512.75;;;5.53;43.42
48015;BME280;33780;51.034;7.120;2023-02-26T14:46:40;101495.28;;;5.49;42.57
48015;BME280;33780;51.034;7.120;2023-02-26T14:49:15;101510.34;;;5.48;43.79
48015;BME280;33780;51.034;7.120;2023-02-26T14:51:51;101500.75;;;5.45;42.25
48015;BME280;33780;51.034;7.120;2023-02-26T15:00:11;101492.53;;;5.50;43.49
48015;BME280;33780;51.034;7.120;2023-02-26T15:02:50;101499.72;;;5.48;41.91
48015;BME280;33780;51.034;7.120;2023-02-26T15:05:27;101503.16;;;5.50;42.99
48015;BME280;33780;51.034;7.120;2023-02-26T15:11:07;101505.97;;;5.47;41.94
48015;BME280;33780;51.034;7.120;2023-02-26T15:24:49;101506.41;;;5.55;44.29
48015;BME280;33780;51.034;7.120;2023-02-26T15:27:19;101508.69;;;5.63;44.71
48015;BME280;33780;51.034;7.120;2023-02-26T15:29:46;101502.19;;;5.68;44.88
48015;BME280;33780;51.034;7.120;2023-02-26T15:32:30;101508.91;;;5.75;45.15
48015;BME280;33780;51.034;7.120;2023-02-26T15:35:13;101520.22;;;5.79;43.04
48015;BME280;33780;51.034;7.120;2023-02-26T15:37:39;101507.72;;;5.81;42.96
48015;BME280;33780;51.034;7.120;2023-02-26T15:40:06;101516.47;;;5.83;42.99